Time,TemperatureF,DewpointF,PressureIn,WindDirection,WindDirectionDegrees,WindSpeedMPH,WindSpeedGustMPH,Humidity,HourlyPrecipIn,Conditions,Clouds,dailyrainin,SolarRadiationWatts/m^2,SoftwareType,DateUTC
2013-05-08 00:22:00,57.0,54.0,-100.00,SSW,205,2.0,7.0,89,0.00,,,0.00,0.000000,,2013-05-08 10:22:00,
2013-05-08 00:33:00,57.0,54.0,-100.00,SSW,205,2.0,7.0,89,0.00,,,0.00,0.000000,,2013-05-08 10:33:00,
2013-05-08 00:42:00,57.0,54.0,-100.00,SSW,205,2.0,7.0,89,0.00,,,0.00,0.000000,,2013-05-08 10:42:00,
2013-05-08 00:52:00,57.0,54.0,-100.00,SSW,205,2.0,7.0,89,0.00,,,0.00,0.000000,,2013-05-08 10:52:00,
2013-05-08 01:22:00,55.0,51.0,-100.00,NW,318,5.0,7.0,85,0.00,,,0.00,0.000000,,2013-05-08 11:22:00,
2013-05-08 01:32:00,55.0,51.0,-100.00,NW,318,5.0,7.0,85,0.00,,,0.00,0.000000,,2013-05-08 11:32:00,
2013-05-08 01:42:00,55.0,51.0,-100.00,NW,318,5.0,7.0,85,0.00,,,0.00,0.000000,,2013-05-08 11:42:00,
2013-05-08 01:52:00,55.0,51.0,-100.00,NW,318,5.0,7.0,85,0.00,,,0.00,0.000000,,2013-05-08 11:52:00,
2013-05-08 02:21:00,52.0,50.0,-100.00,SE,124,1.0,6.0,92,0.00,,,0.00,0.000000,,2013-05-08 12:21:00,
2013-05-08 02:31:00,52.0,50.0,-100.00,SE,124,1.0,6.0,92,0.00,,,0.00,0.000000,,2013-05-08 12:31:00,
2013-05-08 02:41:00,52.0,50.0,-100.00,SE,124,1.0,6.0,92,0.00,,,0.00,0.000000,,2013-05-08 12:41:00,
2013-05-08 02:51:00,52.0,50.0,-100.00,SE,124,1.0,6.0,92,0.00,,,0.00,0.000000,,2013-05-08 12:51:00,
2013-05-08 03:21:00,51.0,50.0,-100.00,ESE,115,3.0,5.0,95,0.00,,,0.00,0.000000,,2013-05-08 13:21:00,
2013-05-08 03:32:00,51.0,50.0,-100.00,ESE,115,3.0,5.0,95,0.00,,,0.00,0.000000,,2013-05-08 13:32:00,
2013-05-08 03:42:00,51.0,50.0,-100.00,ESE,115,3.0,5.0,95,0.00,,,0.00,0.000000,,2013-05-08 13:42:00,
2013-05-08 03:52:00,51.0,50.0,-100.00,ESE,115,3.0,5.0,95,0.00,,,0.00,0.000000,,2013-05-08 13:52:00,
2013-05-08 04:21:00,50.0,48.0,-100.00,SE,133,3.0,5.0,92,0.00,,,0.00,0.000000,,2013-05-08 14:21:00,
2013-05-08 04:31:00,50.0,48.0,-100.00,SE,133,3.0,5.0,92,0.00,,,0.00,0.000000,,2013-05-08 14:31:00,
2013-05-08 04:42:00,50.0,48.0,-100.00,SE,133,3.0,5.0,92,0.00,,,0.00,0.000000,,2013-05-08 14:42:00,
2013-05-08 04:51:00,50.0,48.0,-100.00,SE,133,3.0,5.0,92,0.00,,,0.00,0.000000,,2013-05-08 14:51:00,
2013-05-08 05:21:00,47.0,45.0,-100.00,SE,146,4.0,6.0,91,0.00,,,0.00,0.000000,,2013-05-08 15:21:00,
2013-05-08 05:33:00,47.0,45.0,-100.00,SE,146,4.0,6.0,91,0.00,,,0.00,0.000000,,2013-05-08 15:33:00,
2013-05-08 05:42:00,47.0,45.0,-100.00,SE,146,4.0,6.0,91,0.00,,,0.00,0.000000,,2013-05-08 15:42:00,
2013-05-08 05:52:00,47.0,45.0,-100.00,SE,146,4.0,6.0,91,0.00,,,0.00,0.000000,,2013-05-08 15:52:00,
2013-05-08 06:23:00,47.0,43.0,-100.00,SE,127,4.0,7.0,86,0.00,,,-99.99,1.000000,,2013-05-08 16:23:00,
2013-05-08 06:33:00,47.0,43.0,-100.00,SE,127,4.0,7.0,86,0.00,,,-99.99,1.000000,,2013-05-08 16:33:00,
2013-05-08 06:42:00,47.0,43.0,-100.00,SE,127,4.0,7.0,86,0.00,,,-99.99,1.000000,,2013-05-08 16:42:00,
2013-05-08 06:52:00,47.0,43.0,-100.00,SE,127,4.0,7.0,86,0.00,,,-99.99,1.000000,,2013-05-08 16:52:00,
2013-05-08 07:22:00,57.0,49.0,-100.00,SE,140,2.0,6.0,74,0.00,,,-99.99,126.000000,,2013-05-08 17:22:00,
2013-05-08 07:31:00,57.0,49.0,-100.00,SE,140,2.0,6.0,74,0.00,,,-99.99,126.000000,,2013-05-08 17:31:00,
2013-05-08 07:41:00,57.0,49.0,-100.00,SE,140,2.0,6.0,74,0.00,,,-99.99,126.000000,,2013-05-08 17:41:00,
2013-05-08 07:52:00,57.0,49.0,-100.00,SE,140,2.0,6.0,74,0.00,,,-99.99,126.000000,,2013-05-08 17:52:00,
2013-05-08 08:21:00,62.0,39.0,-100.00,WNW,301,5.0,8.0,43,0.00,,,0.00,449.000000,,2013-05-08 18:21:00,
2013-05-08 08:31:00,62.0,39.0,-100.00,WNW,301,5.0,8.0,43,0.00,,,0.00,449.000000,,2013-05-08 18:31:00,
2013-05-08 08:42:00,62.0,39.0,-100.00,WNW,301,5.0,8.0,43,0.00,,,0.00,449.000000,,2013-05-08 18:42:00,
2013-05-08 08:51:00,62.0,39.0,-100.00,WNW,301,5.0,8.0,43,0.00,,,0.00,449.000000,,2013-05-08 18:51:00,
2013-05-08 09:21:00,67.0,38.0,-100.00,NE,51,4.0,12.0,34,0.00,,,0.00,743.000000,,2013-05-08 19:21:00,
2013-05-08 09:32:00,67.0,38.0,-100.00,NE,51,4.0,12.0,34,0.00,,,0.00,743.000000,,2013-05-08 19:32:00,
2013-05-08 09:42:00,67.0,38.0,-100.00,NE,51,4.0,12.0,34,0.00,,,0.00,743.000000,,2013-05-08 19:42:00,
2013-05-08 09:52:00,67.0,38.0,-100.00,NE,51,4.0,12.0,34,0.00,,,0.00,743.000000,,2013-05-08 19:52:00,
2013-05-08 10:22:00,69.0,39.0,-100.00,WNW,288,9.0,16.0,33,0.00,,,-99.99,998.000000,,2013-05-08 20:22:00,
2013-05-08 10:32:00,69.0,39.0,-100.00,WNW,288,9.0,16.0,33,0.00,,,-99.99,998.000000,,2013-05-08 20:32:00,
2013-05-08 10:41:00,69.0,39.0,-100.00,WNW,288,9.0,16.0,33,0.00,,,-99.99,998.000000,,2013-05-08 20:41:00,
2013-05-08 10:51:00,69.0,39.0,-100.00,WNW,288,9.0,16.0,33,0.00,,,-99.99,998.000000,,2013-05-08 20:51:00,
2013-05-08 11:21:00,70.0,45.0,-100.00,WNW,289,9.0,19.0,40,0.00,,,0.00,1183.000000,,2013-05-08 21:21:00,
2013-05-08 11:33:00,70.0,45.0,-100.00,WNW,289,9.0,19.0,40,0.00,,,0.00,1183.000000,,2013-05-08 21:33:00,
2013-05-08 11:43:00,70.0,45.0,-100.00,WNW,289,9.0,19.0,40,0.00,,,0.00,1183.000000,,2013-05-08 21:43:00,
2013-05-08 11:52:00,70.0,45.0,-100.00,WNW,289,9.0,19.0,40,0.00,,,0.00,1183.000000,,2013-05-08 21:52:00,
2013-05-08 12:22:00,69.0,48.0,-100.00,WNW,302,12.0,23.0,48,0.00,,,0.00,1326.000000,,2013-05-08 22:22:00,
2013-05-08 12:33:00,69.0,48.0,-100.00,WNW,302,12.0,23.0,48,0.00,,,0.00,1326.000000,,2013-05-08 22:33:00,
2013-05-08 12:42:00,69.0,48.0,-100.00,WNW,302,12.0,23.0,48,0.00,,,0.00,1326.000000,,2013-05-08 22:42:00,
2013-05-08 12:52:00,69.0,48.0,-100.00,WNW,302,12.0,23.0,48,0.00,,,0.00,1326.000000,,2013-05-08 22:52:00,
2013-05-08 13:22:00,67.0,53.0,-100.00,WNW,293,9.0,21.0,61,0.00,,,0.00,710.000000,,2013-05-08 23:22:00,
2013-05-08 13:32:00,67.0,53.0,-100.00,WNW,293,9.0,21.0,61,0.00,,,0.00,710.000000,,2013-05-08 23:32:00,
2013-05-08 13:42:00,67.0,53.0,-100.00,WNW,293,9.0,21.0,61,0.00,,,0.00,710.000000,,2013-05-08 23:42:00,
2013-05-08 13:52:00,67.0,53.0,-100.00,WNW,293,9.0,21.0,61,0.00,,,0.00,710.000000,,2013-05-08 23:52:00,
2013-05-08 14:21:00,62.0,54.0,-100.00,East,84,13.0,23.0,74,0.00,,,0.00,116.000000,,2013-05-09 00:21:00,
2013-05-08 14:32:00,62.0,54.0,-100.00,East,84,13.0,23.0,74,0.00,,,0.00,116.000000,,2013-05-09 00:32:00,
2013-05-08 14:42:00,62.0,54.0,-100.00,East,84,13.0,23.0,74,0.00,,,0.00,116.000000,,2013-05-09 00:42:00,
2013-05-08 14:51:00,62.0,54.0,-100.00,East,84,13.0,23.0,74,0.00,,,0.00,116.000000,,2013-05-09 00:51:00,
2013-05-08 15:22:00,63.0,56.0,-100.00,North,353,3.0,17.0,77,0.00,,,0.00,105.000000,,2013-05-09 01:22:00,
2013-05-08 15:32:00,63.0,56.0,-100.00,North,353,3.0,17.0,77,0.00,,,0.00,105.000000,,2013-05-09 01:32:00,
2013-05-08 15:42:00,63.0,56.0,-100.00,North,353,3.0,17.0,77,0.00,,,0.00,105.000000,,2013-05-09 01:42:00,
2013-05-08 15:52:00,63.0,56.0,-100.00,North,353,3.0,17.0,77,0.00,,,0.00,105.000000,,2013-05-09 01:52:00,
2013-05-08 16:21:00,63.0,54.0,-100.00,ESE,117,4.0,17.0,72,0.00,,,0.00,80.000000,,2013-05-09 02:21:00,
2013-05-08 16:32:00,63.0,54.0,-100.00,ESE,117,4.0,17.0,72,0.00,,,0.00,80.000000,,2013-05-09 02:32:00,
2013-05-08 16:41:00,63.0,54.0,-100.00,ESE,117,4.0,17.0,72,0.00,,,0.00,80.000000,,2013-05-09 02:41:00,
2013-05-08 16:52:00,63.0,54.0,-100.00,ESE,117,4.0,17.0,72,0.00,,,0.00,80.000000,,2013-05-09 02:52:00,
2013-05-08 17:21:00,61.0,54.0,-100.00,NW,307,12.0,18.0,79,0.00,,,0.00,142.000000,,2013-05-09 03:21:00,
2013-05-08 17:33:00,61.0,54.0,-100.00,NW,307,12.0,18.0,79,0.00,,,0.00,142.000000,,2013-05-09 03:33:00,
2013-05-08 17:43:00,61.0,54.0,-100.00,NW,307,12.0,18.0,79,0.00,,,0.00,142.000000,,2013-05-09 03:43:00,
2013-05-08 17:52:00,61.0,54.0,-100.00,NW,307,12.0,18.0,79,0.00,,,0.00,142.000000,,2013-05-09 03:52:00,
2013-05-08 18:23:00,61.0,54.0,-100.00,WNW,284,6.0,19.0,79,0.00,,,0.00,153.000000,,2013-05-09 04:23:00,
2013-05-08 18:33:00,61.0,54.0,-100.00,WNW,284,6.0,19.0,79,0.00,,,0.00,153.000000,,2013-05-09 04:33:00,
2013-05-08 18:43:00,61.0,54.0,-100.00,WNW,284,6.0,19.0,79,0.00,,,0.00,153.000000,,2013-05-09 04:43:00,
2013-05-08 18:52:00,61.0,54.0,-100.00,WNW,284,6.0,19.0,79,0.00,,,0.00,153.000000,,2013-05-09 04:52:00,
2013-05-08 19:22:00,60.0,55.0,-100.00,WNW,303,6.0,10.0,84,0.00,,,0.00,46.000000,,2013-05-09 05:22:00,
2013-05-08 19:32:00,60.0,55.0,-100.00,WNW,303,6.0,10.0,84,0.00,,,0.00,46.000000,,2013-05-09 05:32:00,
2013-05-08 19:42:00,60.0,55.0,-100.00,WNW,303,6.0,10.0,84,0.00,,,0.00,46.000000,,2013-05-09 05:42:00,
2013-05-08 19:51:00,60.0,55.0,-100.00,WNW,303,6.0,10.0,84,0.00,,,0.00,46.000000,,2013-05-09 05:51:00,
2013-05-08 20:21:00,57.0,53.0,-100.00,NNW,335,2.0,12.0,88,0.00,,,0.00,0.000000,,2013-05-09 06:21:00,
2013-05-08 20:32:00,57.0,53.0,-100.00,NNW,335,2.0,12.0,88,0.00,,,0.00,0.000000,,2013-05-09 06:32:00,
2013-05-08 20:42:00,57.0,53.0,-100.00,NNW,335,2.0,12.0,88,0.00,,,0.00,0.000000,,2013-05-09 06:42:00,
2013-05-08 20:52:00,57.0,53.0,-100.00,NNW,335,2.0,12.0,88,0.00,,,0.00,0.000000,,2013-05-09 06:52:00,
2013-05-08 21:21:00,57.0,54.0,-100.00,NW,315,5.0,7.0,89,0.00,,,0.00,0.000000,,2013-05-09 07:21:00,
2013-05-08 21:32:00,57.0,54.0,-100.00,NW,315,5.0,7.0,89,0.00,,,0.00,0.000000,,2013-05-09 07:32:00,
2013-05-08 21:42:00,57.0,54.0,-100.00,NW,315,5.0,7.0,89,0.00,,,0.00,0.000000,,2013-05-09 07:42:00,
2013-05-08 21:52:00,57.0,54.0,-100.00,NW,315,5.0,7.0,89,0.00,,,0.00,0.000000,,2013-05-09 07:52:00,
2013-05-08 22:21:00,58.0,55.0,-100.00,WNW,293,7.0,10.0,89,0.00,,,0.00,0.000000,,2013-05-09 08:21:00,
2013-05-08 22:31:00,58.0,55.0,-100.00,WNW,293,7.0,10.0,89,0.00,,,0.00,0.000000,,2013-05-09 08:31:00,
2013-05-08 22:41:00,58.0,55.0,-100.00,WNW,293,7.0,10.0,89,0.00,,,0.00,0.000000,,2013-05-09 08:41:00,
2013-05-08 22:51:00,58.0,55.0,-100.00,WNW,293,7.0,10.0,89,0.00,,,0.00,0.000000,,2013-05-09 08:51:00,
2013-05-08 23:21:00,57.0,54.0,-100.00,NW,305,3.0,9.0,90,0.00,,,0.00,0.000000,,2013-05-09 09:21:00,
2013-05-08 23:32:00,57.0,54.0,-100.00,NW,305,3.0,9.0,90,0.00,,,0.00,0.000000,,2013-05-09 09:32:00,
2013-05-08 23:42:00,57.0,54.0,-100.00,NW,305,3.0,9.0,90,0.00,,,0.00,0.000000,,2013-05-09 09:42:00,
2013-05-08 23:52:00,57.0,54.0,-100.00,NW,305,3.0,9.0,90,0.00,,,0.00,0.000000,,2013-05-09 09:52:00,